OISY  Yasouj  Airport

Iran

Add Bookmark
ICAO OISY
Type Airport
Status Operational
Latitude
30° 42' 1" N
30.700500
Longitude
51° 32' 42" E
51.545101
Local (DST + 5) UTC (GMT + 4)
Aug 4, 2015 11:50 Aug 4, 2015 07:20
Sunrise-Sunset Local UTC
Begin Civil Twilight 05:56 01:26
Sunrise 06:22 01:52
Sunset 07:57 15:27
End Civil Twilight 08:23 15:53
VFR
VFR
MVFR
MVFR
IFR
IFR
LIFR
LIFR
Unknown
Unavailable

Current Weather

METAR Observed VFR
OISY 040700Z 20004KT CAVOK 29/M04 Q1020 Tue, Aug 4, 2015 @ 07:00 UTC
(20 Minutes ago)
Visual Flight Rules
Wind Visibility Conditions
200° at 4 knots (7 kph) 10 km or more
  • No significant weather
Temperatures Readings Precipitation
Current Temp
29°C
84°F
Dewpoint
-4°C
25°F
Humidity 11%
Altimeter 30.12" Hg
Sea Level Pressure 1,020 mb
Field Elevation
1,811 m
5,942 ft
None Recorded

Additional weather within a 92.6km radius of OISY

Map ICAO Location
OIAH 79.6km W/SW (240°)
VFR
VFR
MVFR
MVFR
IFR
IFR
LIFR
LIFR
Unknown
Unavailable
-
-

CheckWX.com is intended as a tool to help pilots better visualize weather data. It is not intended as a substitute for an official weather briefing obtained from a Flight Service Station. CheckWX.com does not meet the FAA requirements for an official pre-flight weather briefing. Therefore, it's important that pilots still call and obtain an official FSS pre-flight weather briefing.

© 2007-2015 CheckWX.com
07:20:34 UTC